Time;durP1;ratioP1;P1;durP2;ratioP2;P2;SDS_P1;SDS_P2;PMS_P1;PMS_P2;Temp;Humidity;BMP_temperature;BMP_pressure;BME280_temperature;BME280_humidity;BME280_pressure;Samples;Min_cycle;Max_cycle;Signal;HPM_P1;HPM_P2
2022/05/30 00:03:50;;;;;;;1.88;1.10;;;;;;;19.70;48.15;96235.91;10175995;29;20052;-82
2022/05/30 00:09:13;;;;;;;1.10;1.00;;;;;;;19.69;48.14;96235.09;10173782;29;20071;-82
2022/05/30 00:14:33;;;;;;;1.63;1.20;;;;;;;19.69;48.52;96234.31;10183825;29;20049;-82
2022/05/30 00:19:52;;;;;;;1.00;0.90;;;;;;;19.70;48.59;96230.50;10171366;29;20054;-82
2022/05/30 00:25:12;;;;;;;1.10;1.00;;;;;;;19.69;48.51;96237.03;10181936;29;20059;-82
2022/05/30 00:30:31;;;;;;;0.80;0.80;;;;;;;19.69;48.26;96234.31;10196628;29;20060;-81
2022/05/30 00:35:51;;;;;;;1.40;1.08;;;;;;;19.69;48.42;96239.72;10196815;29;20067;-81
2022/05/30 00:41:10;;;;;;;1.13;0.90;;;;;;;19.68;48.34;96227.34;10194224;29;20048;-82
2022/05/30 00:46:29;;;;;;;1.15;1.00;;;;;;;19.68;48.35;96232.75;10187165;29;20055;-82
2022/05/30 00:51:51;;;;;;;0.90;0.90;;;;;;;19.67;48.45;96225.78;10186675;29;20409;-82
2022/05/30 00:57:20;;;;;;;1.25;0.90;;;;;;;19.68;48.29;96232.75;10191590;29;20056;-82
2022/05/30 01:02:41;;;;;;;0.90;0.90;;;;;;;19.67;48.30;96231.19;10174212;29;20052;-82
2022/05/30 01:08:01;;;;;;;1.20;1.10;;;;;;;19.66;48.35;96221.47;10195520;29;20051;-82
2022/05/30 01:13:23;;;;;;;1.55;1.10;;;;;;;19.66;48.17;96218.78;10195777;29;20048;-82
2022/05/30 01:18:46;;;;;;;1.00;0.90;;;;;;;19.65;48.11;96225.31;10178154;29;20064;-84
2022/05/30 01:24:37;;;;;;;1.00;0.90;;;;;;;19.64;48.21;96221.84;10173968;29;20054;-81
2022/05/30 01:30:20;;;;;;;1.85;1.05;;;;;;;19.64;47.97;96211.03;10171460;29;20083;-82
2022/05/30 01:35:40;;;;;;;1.48;0.80;;;;;;;19.64;48.22;96221.84;10180880;29;20052;-82
2022/05/30 01:41:05;;;;;;;1.30;0.90;;;;;;;19.63;48.29;96208.66;10172570;29;20594;-82
2022/05/30 01:46:26;;;;;;;1.05;0.95;;;;;;;19.62;48.07;96212.47;10179370;29;20058;-82
2022/05/30 01:51:48;;;;;;;0.70;0.70;;;;;;;19.62;47.98;96212.47;10163498;29;20048;-82
2022/05/30 01:57:08;;;;;;;0.98;0.90;;;;;;;19.61;48.01;96217.09;10191407;29;20056;-82
2022/05/30 02:02:37;;;;;;;0.85;0.80;;;;;;;19.61;48.01;96210.91;10176347;29;20056;-82
2022/05/30 02:07:57;;;;;;;1.38;1.00;;;;;;;19.60;48.18;96207.44;10172696;29;20048;-82
2022/05/30 02:13:20;;;;;;;0.70;0.70;;;;;;;19.59;48.16;96210.47;10180518;29;20056;-82
2022/05/30 02:19:06;;;;;;;1.02;0.75;;;;;;;19.58;48.07;96203.47;10194145;29;20056;-81
2022/05/30 02:24:26;;;;;;;0.60;0.60;;;;;;;19.56;47.97;96212.72;10181487;29;20123;-81
2022/05/30 02:29:46;;;;;;;1.35;1.00;;;;;;;19.55;48.03;96208.44;10179200;29;20052;-81
2022/05/30 02:40:47;;;;;;;0.80;0.80;;;;;;;19.54;48.04;96214.97;10192874;29;20459;-82
2022/05/30 02:46:26;;;;;;;0.90;0.80;;;;;;;19.54;48.10;96216.88;10196030;29;20047;-81
2022/05/30 02:51:46;;;;;;;0.77;0.77;;;;;;;19.53;48.09;96213.38;10168510;29;20111;-81
2022/05/30 02:57:06;;;;;;;1.13;1.02;;;;;;;19.52;48.03;96209.13;10172372;29;20063;-81
2022/05/30 03:02:27;;;;;;;1.10;0.98;;;;;;;19.51;47.98;96207.53;10169697;29;20496;-81
2022/05/30 03:07:48;;;;;;;1.08;0.98;;;;;;;19.52;48.00;96219.13;10177252;29;20040;-81
2022/05/30 03:13:27;;;;;;;1.67;1.00;;;;;;;19.50;47.84;96222.19;10172040;29;20060;-82
2022/05/30 03:18:47;;;;;;;1.10;1.02;;;;;;;19.49;47.99;96220.59;10165064;29;20397;-81
2022/05/30 03:24:08;;;;;;;0.80;0.80;;;;;;;19.48;47.97;96235.25;10136878;29;20589;-81
2022/05/30 03:29:32;;;;;;;0.85;0.85;;;;;;;19.48;47.70;96227.13;10153961;29;20063;-81
2022/05/30 03:34:52;;;;;;;0.80;0.80;;;;;;;19.47;47.97;96233.66;10145411;29;20059;-82
2022/05/30 03:40:14;;;;;;;1.00;0.80;;;;;;;19.47;47.80;96240.97;10151841;29;20052;-82
2022/05/30 03:45:53;;;;;;;0.80;0.80;;;;;;;19.46;47.94;96242.09;10158866;29;20044;-82
2022/05/30 03:51:13;;;;;;;1.15;1.05;;;;;;;19.45;47.41;96241.31;10157130;29;20045;-82
2022/05/30 03:56:34;;;;;;;1.10;1.00;;;;;;;19.45;47.91;96246.72;10140560;29;20048;-82
2022/05/30 04:01:53;;;;;;;1.05;0.90;;;;;;;19.47;47.73;96240.97;10138305;29;20048;-82
2022/05/30 04:07:13;;;;;;;1.00;0.90;;;;;;;19.48;47.72;96237.94;10122550;29;20067;-81
2022/05/30 04:13:07;;;;;;;0.80;0.80;;;;;;;19.51;47.86;96239.94;10140456;29;20080;-80
2022/05/30 04:18:46;;;;;;;8.10;2.35;;;;;;;19.54;48.24;96228.47;10184830;29;20055;-80
2022/05/30 04:24:06;;;;;;;0.90;0.90;;;;;;;19.61;48.30;96229.84;10190732;29;20435;-80
2022/05/30 04:29:34;;;;;;;0.98;0.77;;;;;;;19.67;48.23;96234.66;10168614;29;20048;-81
2022/05/30 04:35:01;;;;;;;1.08;0.90;;;;;;;19.72;48.29;96233.69;10187071;29;20498;-80
2022/05/30 04:40:20;;;;;;;1.92;0.80;;;;;;;19.77;48.28;96227.25;10171696;29;20057;-80
2022/05/30 04:46:04;;;;;;;0.70;0.70;;;;;;;19.79;48.53;96230.41;10187081;29;20056;-80
2022/05/30 04:51:31;;;;;;;1.08;0.73;;;;;;;19.84;48.45;96235.59;10184572;29;20048;-81
2022/05/30 04:56:51;;;;;;;0.70;0.70;;;;;;;19.86;48.46;96247.63;10176205;29;20060;-81
2022/05/30 05:02:18;;;;;;;2.40;0.85;;;;;;;19.86;48.37;96242.22;10167796;29;20682;-83
2022/05/30 05:07:49;;;;;;;1.27;0.80;;;;;;;19.89;48.20;96244.25;10179045;29;20047;-87
2022/05/30 05:13:14;;;;;;;0.82;0.80;;;;;;;19.91;48.37;96247.38;10168875;29;20048;-82
2022/05/30 05:18:53;;;;;;;1.73;0.90;;;;;;;19.94;48.42;96248.66;10181903;29;20044;-82
2022/05/30 05:24:15;;;;;;;7.22;1.92;;;;;;;19.98;48.31;96251.47;10174429;29;20792;-82
2022/05/30 05:29:55;;;;;;;9.45;2.50;;;;;;;20.02;48.34;96249.66;10186518;29;20044;-82
2022/05/30 05:35:14;;;;;;;8.57;2.88;;;;;;;20.06;48.29;96253.25;10175153;29;20056;-82
2022/05/30 05:40:39;;;;;;;13.88;2.78;;;;;;;20.10;48.15;96264.97;10181161;29;20070;-82
2022/05/30 05:45:58;;;;;;;14.13;3.42;;;;;;;20.12;48.20;96251.88;10178709;29;20111;-82
2022/05/30 05:51:19;;;;;;;11.68;3.63;;;;;;;20.14;48.32;96263.94;10177677;29;20048;-82
2022/05/30 05:56:39;;;;;;;11.30;3.00;;;;;;;20.19;48.21;96271.03;10176945;29;20048;-82
2022/05/30 06:02:06;;;;;;;8.95;3.30;;;;;;;20.22;48.20;96273.03;10192134;29;20052;-82
2022/05/30 06:07:25;;;;;;;11.10;3.40;;;;;;;20.23;48.20;96273.81;10194590;29;20078;-82
2022/05/30 06:12:59;;;;;;;7.68;3.08;;;;;;;20.24;48.28;96276.19;10189660;29;20056;-82
2022/05/30 06:18:19;;;;;;;8.57;2.95;;;;;;;20.25;48.25;96275.06;10148342;29;20063;-82
2022/05/30 06:23:38;;;;;;;8.18;2.80;;;;;;;20.27;48.21;96286.34;10162891;29;20496;-82
2022/05/30 06:29:04;;;;;;;7.85;3.00;;;;;;;20.28;48.20;96290.59;10178862;29;20530;-82
2022/05/30 06:34:24;;;;;;;9.55;3.47;;;;;;;20.29;48.08;96294.13;10169367;29;20051;-82
2022/05/30 06:39:44;;;;;;;9.95;3.20;;;;;;;20.30;48.19;96301.88;10170556;29;20488;-82
2022/05/30 06:45:18;;;;;;;8.43;3.03;;;;;;;20.31;48.21;96302.69;10184360;29;20048;-83
2022/05/30 06:51:07;;;;;;;9.35;3.10;;;;;;;20.31;48.05;96300.75;10171718;29;20056;-82
2022/05/30 06:56:31;;;;;;;;;;;;;;;20.32;48.22;96312.38;10178152;29;20056;-82
2022/05/30 07:01:52;;;;;;;9.32;3.00;;;;;;;20.33;47.98;96309.31;10184201;29;20386;-82
2022/05/30 07:07:31;;;;;;;9.05;2.65;;;;;;;20.34;48.21;96312.81;10172938;29;20052;-82
2022/05/30 07:13:13;;;;;;;6.95;2.58;;;;;;;20.34;48.23;96312.81;10188410;29;20052;-82
2022/05/30 07:18:32;;;;;;;6.40;2.78;;;;;;;20.35;48.20;96323.28;10174295;29;20062;-82
2022/05/30 07:23:53;;;;;;;7.15;2.60;;;;;;;20.36;48.21;96315.97;10180624;29;20052;-82
2022/05/30 07:29:33;;;;;;;7.55;2.75;;;;;;;20.37;48.24;96314.84;10174954;29;20062;-82
2022/05/30 07:35:11;;;;;;;9.00;2.83;;;;;;;20.38;48.09;96319.13;10188174;29;20052;-82
2022/05/30 07:40:50;;;;;;;6.07;2.80;;;;;;;20.38;48.26;96319.13;10196388;29;20048;-82
2022/05/30 07:46:28;;;;;;;6.80;2.90;;;;;;;20.40;48.10;96321.47;10177326;29;20048;-82
2022/05/30 07:52:15;;;;;;;5.30;2.63;;;;;;;20.38;48.15;96319.13;10184228;29;20303;-82
2022/05/30 07:58:04;;;;;;;6.10;3.10;;;;;;;20.40;48.18;96321.47;10187044;29;20114;-82
2022/05/30 08:03:26;;;;;;;6.57;2.78;;;;;;;20.40;47.96;96324.19;10174766;29;20056;-81
2022/05/30 08:09:13;;;;;;;6.57;2.80;;;;;;;20.40;48.07;96319.56;10178001;29;20519;-82
2022/05/30 08:14:57;;;;;;;4.88;2.60;;;;;;;20.40;48.01;96321.47;10177127;29;20060;-82
2022/05/30 08:20:22;;;;;;;5.13;2.60;;;;;;;20.40;48.07;96327.66;10195271;29;20055;-83
2022/05/30 08:25:43;;;;;;;5.50;2.40;;;;;;;20.40;48.03;96333.09;10181901;29;20062;-82
2022/05/30 08:31:04;;;;;;;5.78;2.63;;;;;;;20.40;47.98;96326.91;10163246;29;20504;-82
2022/05/30 08:36:39;;;;;;;5.90;2.92;;;;;;;20.40;48.01;96332.31;10190130;29;20476;-83
2022/05/30 08:42:00;;;;;;;6.03;2.60;;;;;;;20.41;48.13;96340.09;10194991;29;20060;-82
2022/05/30 08:47:49;;;;;;;3.85;2.30;;;;;;;20.40;47.98;96341.19;10206025;29;20095;-82
2022/05/30 08:53:08;;;;;;;2.75;1.92;;;;;;;20.40;47.89;96343.91;10178856;29;20051;-82
2022/05/30 08:59:07;;;;;;;4.28;2.40;;;;;;;20.42;47.88;96351.69;10195274;29;20056;-83
2022/05/30 09:04:36;;;;;;;5.25;2.20;;;;;;;20.40;47.86;96346.63;10141044;29;20064;-83
2022/05/30 09:10:05;;;;;;;3.33;2.10;;;;;;;20.40;47.90;96335.00;10170393;29;20501;-82
2022/05/30 09:15:34;;;;;;;4.10;2.42;;;;;;;20.40;47.81;96346.63;10171285;29;20048;-82
2022/05/30 09:20:55;;;;;;;4.20;2.13;;;;;;;20.39;47.82;96342.34;10163296;29;20500;-82
2022/05/30 09:26:18;;;;;;;4.40;2.15;;;;;;;20.39;47.83;96346.97;10190260;29;20075;-82
2022/05/30 09:32:08;;;;;;;3.53;2.10;;;;;;;20.39;47.78;96344.28;10183023;29;20063;-83
2022/05/30 09:37:40;;;;;;;4.00;2.20;;;;;;;20.39;47.78;96341.56;10194474;29;20067;-82
2022/05/30 09:43:28;;;;;;;4.88;2.00;;;;;;;20.38;47.84;96334.56;10182855;29;20060;-83
2022/05/30 09:49:03;;;;;;;3.55;1.90;;;;;;;20.39;47.70;96336.16;10175842;29;20059;-83
2022/05/30 09:54:25;;;;;;;3.22;1.92;;;;;;;20.39;47.78;96341.56;10177149;29;20048;-83
2022/05/30 09:59:48;;;;;;;3.53;1.75;;;;;;;20.38;47.78;96337.28;10179007;29;20063;-83
2022/05/30 10:05:13;;;;;;;3.83;2.10;;;;;;;20.38;47.77;96335.34;10177858;29;20070;-83
2022/05/30 10:10:40;;;;;;;4.15;2.10;;;;;;;20.37;47.90;96341.13;10195248;29;20583;-82
2022/05/30 10:16:06;;;;;;;3.20;1.90;;;;;;;20.39;47.79;96336.16;10171837;29;20051;-82
2022/05/30 10:21:39;;;;;;;3.75;2.17;;;;;;;20.38;47.74;96331.84;10179878;29;20048;-82
2022/05/30 10:33:39;;;;;;;3.63;1.83;;;;;;;20.37;47.52;96331.06;10191473;29;20044;-82
2022/05/30 10:39:25;;;;;;;2.30;1.67;;;;;;;20.38;47.71;96334.56;10183339;29;20060;-82
2022/05/30 10:44:50;;;;;;;2.80;1.63;;;;;;;20.37;47.79;96338.41;10162718;29;20508;-82
2022/05/30 10:50:42;;;;;;;3.90;1.75;;;;;;;20.36;47.74;96324.06;10199152;29;20056;-82
2022/05/30 10:56:24;;;;;;;2.65;1.65;;;;;;;20.37;47.88;96331.06;10181088;29;20603;-82
2022/05/30 11:02:03;;;;;;;2.65;1.52;;;;;;;20.35;47.90;96328.72;10177296;29;20395;-82
2022/05/30 11:07:45;;;;;;;2.70;1.48;;;;;;;20.35;47.85;96328.72;10184176;29;20051;-82
2022/05/30 11:13:24;;;;;;;2.83;1.60;;;;;;;20.34;47.96;96329.81;10182522;29;20052;-82
2022/05/30 11:19:11;;;;;;;2.17;1.40;;;;;;;20.33;48.04;96325.56;10179257;29;20052;-83
2022/05/30 11:24:52;;;;;;;2.67;1.67;;;;;;;20.34;48.07;96324.41;10165375;29;20063;-83
2022/05/30 11:30:30;;;;;;;2.85;1.50;;;;;;;20.33;48.10;96328.25;10196894;29;20099;-82
2022/05/30 11:36:11;;;;;;;2.97;1.57;;;;;;;20.33;48.17;96328.25;10209466;29;20446;-82
2022/05/30 11:41:39;;;;;;;3.03;1.80;;;;;;;20.32;48.23;96321.25;10182362;29;20176;-82
2022/05/30 11:47:18;;;;;;;2.03;1.52;;;;;;;20.33;48.18;96322.06;10181552;29;20056;-82
2022/05/30 11:53:07;;;;;;;2.67;1.33;;;;;;;20.31;48.45;96322.41;10181496;29;20052;-83
2022/05/30 11:58:47;;;;;;;2.10;1.38;;;;;;;20.33;48.32;96322.84;10181433;29;20066;-82
2022/05/30 12:04:32;;;;;;;1.67;1.25;;;;;;;20.32;48.42;96329.38;10196961;29;20052;-82
2022/05/30 12:10:17;;;;;;;1.90;1.50;;;;;;;20.32;48.47;96325.88;10196914;29;20052;-82
2022/05/30 12:15:57;;;;;;;3.03;1.38;;;;;;;20.32;48.41;96332.06;10184232;29;20476;-82
2022/05/30 12:27:04;;;;;;;1.85;1.40;;;;;;;20.31;48.51;96325.09;10203220;29;20055;-82
2022/05/30 12:32:24;;;;;;;2.63;1.50;;;;;;;20.32;48.55;96323.19;10187959;29;20051;-82
2022/05/30 12:37:45;;;;;;;2.33;1.42;;;;;;;20.31;48.50;96319.69;10191255;29;20451;-82
2022/05/30 12:43:32;;;;;;;2.05;1.30;;;;;;;20.31;48.54;96316.22;10189431;29;20058;-82
2022/05/30 12:48:58;;;;;;;2.10;1.40;;;;;;;20.32;48.58;96317.78;10193908;29;20411;-82
2022/05/30 12:54:26;;;;;;;2.10;1.38;;;;;;;20.31;48.69;96303.47;10184868;29;20055;-82
2022/05/30 13:00:45;;;;;;;1.70;1.10;;;;;;;20.32;48.70;96310.44;10187869;29;20048;-82
2022/05/30 13:06:22;;;;;;;1.90;1.20;;;;;;;20.33;48.64;96314.72;10092744;29;20612;-82
2022/05/30 13:11:50;;;;;;;2.13;1.23;;;;;;;20.33;48.69;96316.66;10185645;29;20292;-82
2022/05/30 13:17:18;;;;;;;2.45;1.52;;;;;;;20.32;48.57;96309.66;10191063;29;20064;-82
2022/05/30 13:22:52;;;;;;;1.90;1.05;;;;;;;20.32;48.72;96302.31;10182129;29;20052;-83
2022/05/30 13:28:16;;;;;;;1.55;1.45;;;;;;;20.32;48.56;96323.97;10191175;29;20058;-82
2022/05/30 13:33:40;;;;;;;1.67;1.23;;;;;;;20.31;48.57;96327.81;10191351;29;20048;-82
2022/05/30 13:38:59;;;;;;;2.05;1.40;;;;;;;20.31;48.52;96330.53;10193506;29;20067;-82
2022/05/30 13:44:26;;;;;;;1.65;1.20;;;;;;;20.32;48.59;96328.59;10192857;29;20056;-82
2022/05/30 13:49:53;;;;;;;1.75;1.20;;;;;;;20.32;48.72;96326.66;10176662;29;20052;-82
2022/05/30 13:55:22;;;;;;;1.90;1.20;;;;;;;20.33;48.76;96332.88;10168116;29;20084;-83
2022/05/30 14:00:42;;;;;;;2.15;1.13;;;;;;;20.34;48.67;96329.81;10172222;29;20048;-82
2022/05/30 14:06:02;;;;;;;1.85;1.30;;;;;;;20.36;48.88;96337.59;10176491;29;20128;-82
2022/05/30 14:11:23;;;;;;;2.38;1.27;;;;;;;20.33;49.11;96333.66;10178168;29;20059;-83
2022/05/30 14:16:55;;;;;;;2.30;1.10;;;;;;;20.31;49.25;96349.44;10175353;29;20560;-83
2022/05/30 14:22:21;;;;;;;1.92;1.20;;;;;;;20.32;49.19;96348.31;10174891;29;20062;-85
2022/05/30 14:27:48;;;;;;;1.75;1.20;;;;;;;20.31;49.36;96349.44;10170595;29;20055;-84
2022/05/30 14:33:25;;;;;;;1.38;1.00;;;;;;;20.32;49.56;96342.13;10182751;29;20048;-84
2022/05/30 14:38:45;;;;;;;2.95;1.00;;;;;;;20.35;49.40;96346.88;10176408;29;20048;-85
2022/05/30 14:44:04;;;;;;;2.28;1.20;;;;;;;20.37;49.24;96354.66;10156263;29;20052;-85
2022/05/30 14:49:27;;;;;;;2.45;1.08;;;;;;;20.30;47.37;96347.88;10163107;29;20056;-82
2022/05/30 14:54:51;;;;;;;1.50;0.90;;;;;;;20.23;43.80;96355.78;10187671;29;20055;-83
2022/05/30 15:00:56;;;;;;;1.83;1.40;;;;;;;20.13;40.94;96356.22;10165120;29;20059;-82
2022/05/30 15:06:18;;;;;;;2.42;1.45;;;;;;;20.15;41.43;96364.81;10159434;29;20051;-83
2022/05/30 15:11:38;;;;;;;2.63;1.30;;;;;;;20.24;41.01;96357.34;10154298;29;20088;-83
2022/05/30 15:16:59;;;;;;;2.28;1.50;;;;;;;20.31;41.32;96370.31;10158853;29;20064;-83
2022/05/30 15:22:20;;;;;;;2.10;0.90;;;;;;;20.25;40.38;96369.75;10182433;29;20060;-83
2022/05/30 15:27:40;;;;;;;1.33;0.77;;;;;;;20.17;39.80;96357.13;10169867;29;20052;-84
2022/05/30 15:32:59;;;;;;;1.85;1.00;;;;;;;20.12;40.20;96366.25;10159829;29;20060;-84
2022/05/30 15:38:18;;;;;;;0.77;0.68;;;;;;;20.09;39.32;96366.13;10172894;29;20520;-84
2022/05/30 15:43:38;;;;;;;3.50;1.10;;;;;;;20.05;38.62;96359.81;10151857;29;20048;-83
2022/05/30 15:48:57;;;;;;;2.22;1.30;;;;;;;19.99;38.03;96370.06;10170094;29;20052;-84
2022/05/30 15:59:57;;;;;;;1.65;1.17;;;;;;;20.04;38.25;96383.38;10145049;29;20104;-83
2022/05/30 16:05:17;;;;;;;2.92;1.23;;;;;;;20.12;38.79;96392.50;10161680;29;20052;-83
2022/05/30 16:10:38;;;;;;;2.13;1.23;;;;;;;20.21;39.23;96401.31;10157960;29;20056;-83
2022/05/30 16:15:57;;;;;;;1.90;1.13;;;;;;;20.24;39.37;96411.44;10151511;29;20190;-83
2022/05/30 16:21:21;;;;;;;2.80;1.05;;;;;;;20.25;40.39;96423.84;10162059;29;20044;-82
2022/05/30 16:26:42;;;;;;;2.17;1.30;;;;;;;20.26;40.98;96435.44;10146831;29;20075;-83
2022/05/30 16:32:01;;;;;;;1.77;1.25;;;;;;;20.27;41.50;96453.28;10154532;29;20109;-82
2022/05/30 16:37:24;;;;;;;2.75;1.20;;;;;;;20.29;41.83;96446.38;10167244;29;20415;-83
2022/05/30 16:42:43;;;;;;;1.35;1.20;;;;;;;20.31;41.82;96446.84;10139908;29;20401;-83
2022/05/30 16:48:03;;;;;;;1.80;1.30;;;;;;;20.33;42.30;96441.88;10154922;29;20099;-83
2022/05/30 16:53:23;;;;;;;2.58;1.40;;;;;;;20.35;42.40;96438.84;10159205;29;20408;-83
2022/05/30 16:58:43;;;;;;;2.40;1.10;;;;;;;20.35;42.65;96455.84;10157861;29;20052;-83
2022/05/30 17:04:03;;;;;;;1.38;1.00;;;;;;;20.37;42.86;96460.16;10169541;29;20066;-83
2022/05/30 17:09:28;;;;;;;2.25;1.20;;;;;;;20.38;42.93;96464.41;10168605;29;20456;-83
2022/05/30 17:14:48;;;;;;;2.70;1.30;;;;;;;20.39;42.92;96471.44;10156973;29;20103;-83
2022/05/30 17:20:10;;;;;;;2.53;0.80;;;;;;;20.37;42.82;96470.97;10173216;29;20052;-83
2022/05/30 17:25:31;;;;;;;2.00;0.93;;;;;;;20.19;41.31;96490.09;10166147;29;20056;-82
2022/05/30 17:30:55;;;;;;;0.98;0.70;;;;;;;19.99;40.60;96480.91;10179934;29;20087;-82
2022/05/30 17:36:14;;;;;;;0.98;0.70;;;;;;;19.93;41.46;96504.69;10170263;29;20080;-82
2022/05/30 17:41:34;;;;;;;0.80;0.65;;;;;;;19.95;42.15;96502.44;10174777;29;20416;-83
2022/05/30 17:47:16;;;;;;;1.95;0.50;;;;;;;19.98;43.26;96506.41;10161742;29;20073;-82
2022/05/30 17:52:49;;;;;;;2.20;0.70;;;;;;;20.02;43.85;96512.72;10171848;29;20048;-82
2022/05/30 17:58:08;;;;;;;0.77;0.60;;;;;;;20.05;44.41;96516.66;10184731;29;20060;-82
2022/05/30 18:03:30;;;;;;;1.60;0.80;;;;;;;20.06;44.82;96519.03;10157264;29;20062;-83
2022/05/30 18:09:03;;;;;;;0.93;0.80;;;;;;;20.08;45.55;96526.81;10152305;29;20074;-82
2022/05/30 18:14:44;;;;;;;1.55;0.77;;;;;;;20.07;46.16;96528.72;10160493;29;20050;-83
2022/05/30 18:20:16;;;;;;;0.98;0.70;;;;;;;20.06;46.25;96531.75;10167069;29;20195;-84
2022/05/30 18:25:37;;;;;;;1.20;1.10;;;;;;;20.06;46.53;96534.47;10174749;29;20100;-85
2022/05/30 18:31:01;;;;;;;2.15;0.80;;;;;;;20.07;46.90;96538.75;10153361;29;20048;-84
2022/05/30 18:36:38;;;;;;;1.23;0.77;;;;;;;20.05;47.05;96552.63;10167682;29;20056;-84
2022/05/30 18:42:21;;;;;;;1.25;0.80;;;;;;;20.03;47.66;96565.69;10159969;29;20096;-84
2022/05/30 18:47:49;;;;;;;1.38;0.93;;;;;;;19.95;43.94;96575.44;10154890;29;20056;-84
2022/05/30 18:53:11;;;;;;;1.10;0.90;;;;;;;19.79;44.94;96574.47;10166335;29;20107;-85
2022/05/30 18:58:54;;;;;;;4.00;1.33;;;;;;;19.82;44.35;96583.84;10164985;29;20056;-84
2022/05/30 19:04:13;;;;;;;1.02;0.85;;;;;;;19.78;45.03;96586.41;10171436;29;20052;-83
2022/05/30 19:09:33;;;;;;;1.58;0.80;;;;;;;19.85;45.72;96592.06;10159987;29;20052;-83
2022/05/30 19:20:37;;;;;;;0.95;0.80;;;;;;;19.93;46.89;96607.44;10176544;29;20051;-82
2022/05/30 19:25:58;;;;;;;1.58;1.08;;;;;;;19.94;46.98;96614.41;10196219;29;20055;-81
2022/05/30 19:31:21;;;;;;;2.08;0.90;;;;;;;19.96;47.58;96633.00;10160001;29;20516;-82
2022/05/30 19:36:41;;;;;;;3.22;1.10;;;;;;;19.97;47.83;96628.38;10192300;29;20152;-82
2022/05/30 19:42:02;;;;;;;3.35;1.30;;;;;;;19.95;48.11;96621.41;10181621;29;20064;-82
2022/05/30 19:47:23;;;;;;;5.05;1.48;;;;;;;19.96;48.34;96633.00;10179157;29;20058;-82
2022/05/30 19:52:42;;;;;;;3.20;1.38;;;;;;;19.94;48.48;96636.03;10177838;29;20052;-82
2022/05/30 19:58:03;;;;;;;5.15;1.70;;;;;;;19.94;48.62;96636.03;10198084;29;20056;-83
2022/05/30 20:03:23;;;;;;;5.75;2.05;;;;;;;19.93;48.48;96645.28;10190491;29;20424;-82
2022/05/30 20:08:42;;;;;;;6.18;2.00;;;;;;;19.92;48.95;96642.91;10187571;29;20052;-83
2022/05/30 20:14:11;;;;;;;5.38;2.13;;;;;;;19.92;49.32;96640.97;10191169;29;20609;-82
2022/05/30 20:19:32;;;;;;;;;;;;;;;19.91;49.47;96652.91;10168565;29;20055;-83
2022/05/30 20:24:53;;;;;;;6.57;2.63;;;;;;;19.93;49.47;96658.00;10161100;29;19974;-84
2022/05/30 20:30:13;;;;;;;8.05;2.60;;;;;;;19.95;49.56;96655.75;10137070;29;20052;-83
2022/05/30 20:35:33;;;;;;;7.97;2.50;;;;;;;19.97;49.60;96671.66;10163105;29;20063;-83
2022/05/30 20:46:32;;;;;;;7.65;2.90;;;;;;;19.98;49.83;96690.25;10165374;29;20060;-83
2022/05/30 20:51:56;;;;;;;8.02;2.65;;;;;;;19.98;49.89;96695.66;10165519;29;20052;-83
2022/05/30 20:57:15;;;;;;;6.22;2.45;;;;;;;19.98;49.94;96705.69;10158916;29;20049;-83
2022/05/30 21:02:38;;;;;;;7.82;2.83;;;;;;;19.98;49.70;96706.47;10161721;29;20060;-84
2022/05/30 21:07:58;;;;;;;7.80;2.70;;;;;;;19.97;49.84;96698.69;10181981;29;20412;-83
2022/05/30 21:13:17;;;;;;;6.40;2.85;;;;;;;19.98;49.84;96698.38;10180292;29;20103;-83
2022/05/30 21:18:47;;;;;;;6.28;2.85;;;;;;;19.98;49.94;96705.69;10173564;29;20508;-83
2022/05/30 21:24:07;;;;;;;7.80;3.50;;;;;;;19.99;50.20;96709.97;10157455;29;20052;-84
2022/05/30 21:29:27;;;;;;;7.88;3.03;;;;;;;19.97;50.13;96709.50;10183815;29;20456;-83
2022/05/30 21:34:49;;;;;;;6.75;3.10;;;;;;;19.97;50.50;96704.09;10151934;29;20408;-84
2022/05/30 21:40:12;;;;;;;5.68;2.58;;;;;;;19.93;50.55;96715.59;10164989;29;20135;-84
2022/05/30 21:45:32;;;;;;;6.65;2.53;;;;;;;19.92;50.90;96711.28;10158972;29;20052;-84
2022/05/30 21:50:51;;;;;;;5.78;2.78;;;;;;;19.90;51.19;96707.34;10161213;29;20060;-83
2022/05/30 21:56:15;;;;;;;4.47;2.40;;;;;;;19.90;51.13;96704.63;10174498;29;20389;-83
2022/05/30 22:01:34;;;;;;;4.95;2.20;;;;;;;19.88;51.26;96707.66;10175016;29;20096;-83
2022/05/30 22:06:54;;;;;;;6.25;2.25;;;;;;;19.88;51.32;96707.66;10173054;29;20408;-83
2022/05/30 22:12:14;;;;;;;6.20;2.42;;;;;;;19.88;51.27;96707.66;10174353;29;20047;-83
2022/05/30 22:17:35;;;;;;;5.30;2.40;;;;;;;19.87;51.43;96714.16;10156708;29;20059;-83
2022/05/30 22:22:56;;;;;;;5.25;2.42;;;;;;;19.86;51.43;96726.13;10175989;29;20076;-83
2022/05/30 22:28:16;;;;;;;5.05;2.30;;;;;;;19.86;51.34;96720.72;10177376;29;20048;-83
2022/05/30 22:33:37;;;;;;;4.28;2.30;;;;;;;19.85;51.34;96729.94;10166967;29;20054;-83
2022/05/30 22:38:56;;;;;;;5.60;2.10;;;;;;;19.84;51.30;96725.66;10185983;29;20427;-83
2022/05/30 22:44:16;;;;;;;4.95;2.17;;;;;;;19.85;51.23;96729.13;10162652;29;20052;-83
2022/05/30 22:49:35;;;;;;;4.15;2.13;;;;;;;19.84;51.30;96722.94;10173199;29;20048;-83
2022/05/30 22:54:54;;;;;;;4.32;2.03;;;;;;;19.82;51.25;96730.59;10178699;29;20110;-83
2022/05/30 23:00:26;;;;;;;3.60;1.75;;;;;;;19.81;51.36;96730.91;10165885;29;20119;-83
2022/05/30 23:05:46;;;;;;;4.13;1.75;;;;;;;19.82;51.34;96730.59;10167172;29;20060;-83
2022/05/30 23:11:06;;;;;;;3.55;1.90;;;;;;;19.81;51.39;96737.09;10177748;29;20063;-83
2022/05/30 23:16:35;;;;;;;3.30;1.80;;;;;;;19.79;51.35;96736.63;10178051;29;20075;-83
2022/05/30 23:21:54;;;;;;;3.97;2.10;;;;;;;19.79;51.30;96738.56;10175033;29;20052;-83
2022/05/30 23:27:14;;;;;;;3.83;1.85;;;;;;;19.78;51.41;96729.66;10173747;29;20077;-83
2022/05/30 23:32:34;;;;;;;4.07;1.88;;;;;;;19.76;51.00;96731.91;10185614;29;20059;-83
2022/05/30 23:37:54;;;;;;;3.85;1.90;;;;;;;19.77;51.43;96733.47;10156150;29;20051;-83
2022/05/30 23:48:51;;;;;;;3.23;1.97;;;;;;;19.73;51.41;96719.81;10158353;29;20060;-83
2022/05/30 23:54:11;;;;;;;3.38;1.92;;;;;;;19.72;51.50;96718.25;10183191;29;20768;-83
2022/05/30 23:59:31;;;;;;;3.03;2.00;;;;;;;19.72;51.41;96723.66;10171510;29;20056;-83
